CYLW

Kelowna International Airport

Kelowna, British Columbia, Canada
METAR CYLW 191000Z AUTO VRB02KT 9SM CLR 04/03 A3010 RMK SLP201
Observed Flight Rules
Sep-19 @ 10:00 UTC (an hour ago) Visual Flight Rules
Wind Visibility Clouds
Variable at 2 knots 9 miles
  • Clear skies
Temperatures Readings
Current 4°C / 39°F
Dewpoint 3°C / 37°F
Humidity 93%
Altimeter 30.1" Hg
Pressure 1020.1 hPa
Elevation 430
METAR CYLW 191000Z AUTO VRB02KT 9SM CLR 04/03 A3010 RMK SLP201
Observed Flight Rules
Sep-19 @ 10:00 UTC
(an hour ago)
VFR
Wind Visibility
Variable at 2 knots 9 miles
Clouds
  • Clear skies
Temperature Dewpoint
4°C / 39°F 3°C / 37°F
Humidity Altimeter Pressure
93% 30.1" Hg 1020.1 hPa